Time;durP1;ratioP1;P1;durP2;ratioP2;P2;SDS_P1;SDS_P2;PMS_P1;PMS_P2;Temp;Humidity;BMP_temperature;BMP_pressure;BME280_temperature;BME280_humidity;BME280_pressure;Samples;Min_cycle;Max_cycle;Signal;HPM_P1;HPM_P2
2022/05/19 00:01:34;;;;;;;;;;;16.40;99.90;;;;;;5050331;28;38195;-47
2022/05/19 00:04:01;;;;;;;;;;;16.40;99.90;;;;;;5050961;28;40846;-47
2022/05/19 00:06:28;;;;;;;;;;;16.40;99.90;;;;;;5051977;28;37144;-48
2022/05/19 00:08:55;;;;;;;;;;;16.40;99.90;;;;;;5050549;28;37813;-48
2022/05/19 00:11:26;;;;;;;;;;;16.30;99.90;;;;;;5055148;28;38581;-46
2022/05/19 00:13:53;;;;;;;;;;;16.30;99.90;;;;;;5053721;28;36600;-49
2022/05/19 00:16:21;;;;;;;;;;;16.30;99.90;;;;;;5054376;28;37092;-48
2022/05/19 00:18:49;;;;;;;;;;;16.40;99.90;;;;;;5052930;28;36233;-47
2022/05/19 00:21:16;;;;;;;;;;;16.40;99.90;;;;;;5053016;28;36499;-48
2022/05/19 00:23:44;;;;;;;;;;;16.40;99.90;;;;;;5051417;28;38387;-46
2022/05/19 00:26:11;;;;;;;;;;;16.40;99.90;;;;;;5050934;28;36140;-45
2022/05/19 00:28:38;;;;;;;;;;;16.40;99.90;;;;;;5048494;28;36060;-47
2022/05/19 00:31:05;;;;;;;;;;;16.40;99.90;;;;;;5053269;28;39523;-46
2022/05/19 00:33:33;;;;;;;;;;;16.30;99.90;;;;;;5053013;28;38266;-50
2022/05/19 00:36:06;;;;;;;;;;;16.30;99.90;;;;;;5054946;28;37518;-46
2022/05/19 00:38:33;;;;;;;;;;;16.30;99.90;;;;;;5053086;28;37244;-48
2022/05/19 00:41:00;;;;;;;;;;;16.30;99.90;;;;;;5053669;28;38201;-46
2022/05/19 00:43:28;;;;;;;;;;;16.30;99.90;;;;;;5052653;28;40445;-47
2022/05/19 00:45:57;;;;;;;;;;;16.30;99.90;;;;;;5054408;28;37642;-47
2022/05/19 00:48:26;;;;;;;;;;;16.30;99.90;;;;;;5053564;28;36160;-48
2022/05/19 00:50:55;;;;;;;;;;;16.30;99.90;;;;;;5051871;28;39225;-48
2022/05/19 00:53:38;;;;;;;;;;;16.30;99.90;;;;;;5054064;28;39266;-47
2022/05/19 00:56:08;;;;;;;;;;;16.20;99.90;;;;;;5051767;28;37700;-46
2022/05/19 00:58:37;;;;;;;;;;;16.30;99.90;;;;;;5053290;28;36114;-46
2022/05/19 01:01:05;;;;;;;;;;;16.30;99.90;;;;;;5054445;28;37703;-47
2022/05/19 01:03:36;;;;;;;;;;;16.30;99.90;;;;;;5053865;28;36579;-47
2022/05/19 01:06:07;;;;;;;;;;;16.30;99.90;;;;;;5053934;28;37039;-49
2022/05/19 01:08:38;;;;;;;;;;;16.40;99.90;;;;;;5054298;28;37298;-46
2022/05/19 01:11:06;;;;;;;;;;;16.40;99.90;;;;;;5054371;28;39040;-45
2022/05/19 01:13:34;;;;;;;;;;;16.40;99.90;;;;;;5053748;28;38009;-48
2022/05/19 01:16:02;;;;;;;;;;;16.40;99.90;;;;;;5054016;28;37820;-47
2022/05/19 01:18:30;;;;;;;;;;;16.40;99.90;;;;;;5052530;28;35260;-46
2022/05/19 01:20:58;;;;;;;;;;;16.40;99.90;;;;;;5053049;28;36418;-46
2022/05/19 01:23:29;;;;;;;;;;;16.30;99.90;;;;;;5052211;28;40058;-47
2022/05/19 01:26:01;;;;;;;;;;;16.40;99.90;;;;;;5052652;28;37775;-47
2022/05/19 01:28:30;;;;;;;;;;;16.40;99.90;;;;;;5052700;28;37228;-47
2022/05/19 01:30:57;;;;;;;;;;;16.30;99.90;;;;;;5052587;28;37544;-46
2022/05/19 01:33:25;;;;;;;;;;;16.30;99.90;;;;;;5052979;28;38377;-48
2022/05/19 01:35:52;;;;;;;;;;;16.40;99.90;;;;;;5053410;28;37051;-45
2022/05/19 01:38:21;;;;;;;;;;;16.30;99.90;;;;;;5052077;28;36278;-46
2022/05/19 01:41:00;;;;;;;;;;;16.30;99.90;;;;;;5052454;28;36066;-45
2022/05/19 01:43:31;;;;;;;;;;;16.30;99.90;;;;;;5053815;28;38569;-45
2022/05/19 01:46:02;;;;;;;;;;;16.30;99.90;;;;;;5054340;28;38020;-49
2022/05/19 01:48:34;;;;;;;;;;;16.30;99.90;;;;;;5053005;28;36291;-46
2022/05/19 01:51:06;;;;;;;;;;;16.40;99.90;;;;;;5053673;28;37719;-45
2022/05/19 01:53:36;;;;;;;;;;;16.40;99.90;;;;;;5045168;28;38645;-45
2022/05/19 01:56:07;;;;;;;;;;;16.40;99.90;;;;;;5052684;28;36898;-46
2022/05/19 01:58:39;;;;;;;;;;;16.40;99.90;;;;;;5045702;28;36501;-47
2022/05/19 02:01:06;;;;;;;;;;;16.40;99.90;;;;;;5052919;28;38685;-47
2022/05/19 02:03:35;;;;;;;;;;;16.40;99.90;;;;;;5052515;28;38307;-46
2022/05/19 02:06:05;;;;;;;;;;;16.40;99.90;;;;;;5053622;28;38143;-46
2022/05/19 02:08:36;;;;;;;;;;;16.40;99.90;;;;;;5053955;28;37142;-46
2022/05/19 02:11:09;;;;;;;;;;;16.40;99.90;;;;;;5056705;28;36344;-46
2022/05/19 02:13:37;;;;;;;;;;;16.40;99.90;;;;;;5056506;28;39130;-46
2022/05/19 02:16:06;;;;;;;;;;;16.40;99.90;;;;;;5056375;28;39085;-47
2022/05/19 02:18:33;;;;;;;;;;;16.40;99.90;;;;;;5056035;28;36177;-45
2022/05/19 02:21:03;;;;;;;;;;;16.40;99.90;;;;;;5056679;28;37578;-46
2022/05/19 02:23:31;;;;;;;;;;;16.40;99.90;;;;;;5055075;28;38162;-45
2022/05/19 02:25:58;;;;;;;;;;;16.40;99.90;;;;;;5055849;28;37264;-48
2022/05/19 02:28:27;;;;;;;;;;;16.50;99.90;;;;;;5051180;28;37423;-46
2022/05/19 02:30:56;;;;;;;;;;;16.50;99.90;;;;;;5057815;28;40891;-47
2022/05/19 02:33:23;;;;;;;;;;;16.40;99.90;;;;;;5056206;28;37587;-46
2022/05/19 02:35:51;;;;;;;;;;;16.40;99.90;;;;;;5055830;28;37807;-47
2022/05/19 02:38:18;;;;;;;;;;;16.50;99.90;;;;;;5055202;28;36717;-47
2022/05/19 02:40:46;;;;;;;;;;;16.50;99.90;;;;;;5055830;28;37727;-46
2022/05/19 02:43:14;;;;;;;;;;;16.50;99.90;;;;;;5054984;28;37913;-45
2022/05/19 02:45:41;;;;;;;;;;;16.50;99.90;;;;;;5056774;28;37347;-45
2022/05/19 02:48:10;;;;;;;;;;;16.50;99.90;;;;;;5055674;28;35191;-45
2022/05/19 02:50:39;;;;;;;;;;;16.50;99.90;;;;;;5056066;28;38273;-46
2022/05/19 02:53:07;;;;;;;;;;;16.50;99.90;;;;;;5055640;28;41739;-45
2022/05/19 02:55:34;;;;;;;;;;;16.50;99.90;;;;;;5055975;28;37996;-50
2022/05/19 02:58:01;;;;;;;;;;;16.60;99.90;;;;;;5054401;28;36498;-45
2022/05/19 03:00:28;;;;;;;;;;;16.60;99.90;;;;;;5055286;28;38014;-45
2022/05/19 03:02:56;;;;;;;;;;;16.60;99.90;;;;;;5054760;28;36933;-47
2022/05/19 03:05:25;;;;;;;;;;;16.60;99.90;;;;;;5054817;28;39524;-46
2022/05/19 03:07:52;;;;;;;;;;;16.70;99.90;;;;;;5054729;28;34991;-48
2022/05/19 03:10:19;;;;;;;;;;;16.70;99.90;;;;;;5055969;28;38389;-46
2022/05/19 03:12:46;;;;;;;;;;;16.70;99.90;;;;;;5055878;28;36797;-48
2022/05/19 03:15:14;;;;;;;;;;;16.70;99.90;;;;;;5055989;28;38225;-46
2022/05/19 03:17:41;;;;;;;;;;;16.80;99.90;;;;;;5054068;28;36415;-46
2022/05/19 03:20:09;;;;;;;;;;;16.80;99.90;;;;;;5055807;28;38457;-48
2022/05/19 03:22:37;;;;;;;;;;;16.80;99.90;;;;;;5054187;28;38712;-48
2022/05/19 03:25:05;;;;;;;;;;;16.80;99.90;;;;;;5056922;28;37580;-46
2022/05/19 03:27:32;;;;;;;;;;;16.80;99.90;;;;;;5055090;28;36091;-47
2022/05/19 03:29:59;;;;;;;;;;;16.80;99.90;;;;;;5056366;28;37627;-47
2022/05/19 03:32:26;;;;;;;;;;;16.90;99.90;;;;;;5054924;28;37858;-47
2022/05/19 03:34:53;;;;;;;;;;;16.90;99.90;;;;;;5055740;28;35908;-47
2022/05/19 03:37:21;;;;;;;;;;;16.90;99.90;;;;;;5053999;28;37283;-47
2022/05/19 03:39:49;;;;;;;;;;;16.90;99.90;;;;;;5056255;28;37668;-46
2022/05/19 03:42:16;;;;;;;;;;;16.90;99.90;;;;;;5053913;28;38023;-46
2022/05/19 03:44:44;;;;;;;;;;;16.90;99.90;;;;;;5055103;28;38696;-47
2022/05/19 03:47:11;;;;;;;;;;;16.90;99.90;;;;;;5054737;28;36485;-47
2022/05/19 03:49:38;;;;;;;;;;;16.90;99.90;;;;;;5056672;28;36389;-46
2022/05/19 03:52:05;;;;;;;;;;;16.90;99.90;;;;;;5055384;28;39227;-46
2022/05/19 03:54:32;;;;;;;;;;;16.90;99.90;;;;;;5055079;28;36653;-47
2022/05/19 03:57:01;;;;;;;;;;;17.00;99.90;;;;;;5055726;28;37056;-46
2022/05/19 03:59:28;;;;;;;;;;;16.90;99.90;;;;;;5054059;28;38239;-47
2022/05/19 04:01:55;;;;;;;;;;;17.00;99.90;;;;;;5054878;28;37232;-47
2022/05/19 04:04:22;;;;;;;;;;;17.10;99.90;;;;;;5054452;28;38502;-46
2022/05/19 04:06:49;;;;;;;;;;;17.10;99.90;;;;;;5054702;28;35132;-47
2022/05/19 04:09:16;;;;;;;;;;;17.20;99.90;;;;;;5054752;28;39185;-46
2022/05/19 04:11:43;;;;;;;;;;;17.20;99.90;;;;;;5054944;28;36644;-47
2022/05/19 04:14:12;;;;;;;;;;;17.30;99.90;;;;;;5055813;28;37400;-47
2022/05/19 04:16:40;;;;;;;;;;;17.20;99.90;;;;;;5053930;28;36616;-46
2022/05/19 04:19:07;;;;;;;;;;;17.30;99.90;;;;;;5053806;28;37903;-47
2022/05/19 04:21:34;;;;;;;;;;;17.30;99.90;;;;;;5053704;28;37669;-47
2022/05/19 04:24:01;;;;;;;;;;;17.30;99.90;;;;;;5052760;28;37448;-46
2022/05/19 04:26:28;;;;;;;;;;;17.30;99.90;;;;;;5051838;28;36246;-47
2022/05/19 04:28:55;;;;;;;;;;;17.30;99.90;;;;;;5051128;28;38693;-46
2022/05/19 04:31:24;;;;;;;;;;;17.30;99.90;;;;;;5051935;28;38277;-46
2022/05/19 04:33:51;;;;;;;;;;;17.30;99.90;;;;;;5052724;28;37817;-47
2022/05/19 04:36:18;;;;;;;;;;;17.40;99.90;;;;;;5051435;28;37679;-47
2022/05/19 04:38:45;;;;;;;;;;;17.40;99.90;;;;;;5054352;28;37615;-45
2022/05/19 04:41:12;;;;;;;;;;;17.40;99.90;;;;;;5054180;28;36541;-46
2022/05/19 04:43:40;;;;;;;;;;;17.40;99.90;;;;;;5054487;28;38528;-45
2022/05/19 04:46:07;;;;;;;;;;;17.50;99.90;;;;;;5054548;28;35170;-45
2022/05/19 04:48:35;;;;;;;;;;;17.50;99.90;;;;;;5053699;28;39514;-46
2022/05/19 04:51:03;;;;;;;;;;;17.60;99.90;;;;;;5053115;28;40030;-45
2022/05/19 04:53:30;;;;;;;;;;;17.70;99.90;;;;;;5054098;28;37299;-47
2022/05/19 04:55:57;;;;;;;;;;;17.70;99.90;;;;;;5054247;28;36814;-46
2022/05/19 04:58:24;;;;;;;;;;;17.80;99.90;;;;;;5033765;28;38410;-45
2022/05/19 05:00:52;;;;;;;;;;;17.80;99.90;;;;;;5045531;28;38652;-46
2022/05/19 05:03:19;;;;;;;;;;;17.90;99.90;;;;;;5045951;28;37808;-46
2022/05/19 05:05:48;;;;;;;;;;;17.90;99.90;;;;;;5043897;28;37538;-47
2022/05/19 05:08:15;;;;;;;;;;;17.90;99.90;;;;;;5045019;28;37809;-46
2022/05/19 05:10:42;;;;;;;;;;;18.00;99.90;;;;;;5045315;28;38305;-48
2022/05/19 05:13:10;;;;;;;;;;;18.00;99.90;;;;;;5047315;28;37011;-45
2022/05/19 05:15:38;;;;;;;;;;;18.00;99.90;;;;;;5046840;28;38268;-46
2022/05/19 05:18:06;;;;;;;;;;;18.10;99.90;;;;;;5046610;28;38654;-45
2022/05/19 05:20:33;;;;;;;;;;;18.10;99.90;;;;;;5042705;28;38592;-47
2022/05/19 05:23:01;;;;;;;;;;;18.20;99.90;;;;;;5047638;28;37645;-48
2022/05/19 05:25:29;;;;;;;;;;;18.30;99.90;;;;;;5046861;28;37361;-50
2022/05/19 05:27:56;;;;;;;;;;;18.30;99.90;;;;;;5047099;28;38253;-46
2022/05/19 05:30:24;;;;;;;;;;;18.30;99.90;;;;;;5049797;28;37655;-46
2022/05/19 05:32:51;;;;;;;;;;;18.30;99.90;;;;;;5047319;28;37460;-48
2022/05/19 05:35:18;;;;;;;;;;;18.40;99.90;;;;;;5048728;28;35166;-48
2022/05/19 05:37:45;;;;;;;;;;;18.40;99.90;;;;;;5049740;28;38645;-47
2022/05/19 05:40:14;;;;;;;;;;;18.40;99.90;;;;;;5048996;28;36288;-47
2022/05/19 05:42:41;;;;;;;;;;;18.50;99.90;;;;;;5048157;28;37978;-46
2022/05/19 05:45:09;;;;;;;;;;;18.50;99.90;;;;;;5052139;28;36103;-47
2022/05/19 05:47:36;;;;;;;;;;;18.60;99.90;;;;;;5053943;28;37928;-46
2022/05/19 05:50:04;;;;;;;;;;;18.70;99.90;;;;;;5053100;28;38643;-48
2022/05/19 05:52:31;;;;;;;;;;;18.70;99.90;;;;;;5052967;28;37195;-49
2022/05/19 05:54:59;;;;;;;;;;;18.70;99.90;;;;;;5052631;28;36563;-48
2022/05/19 05:57:28;;;;;;;;;;;18.80;99.90;;;;;;5054129;28;39217;-45
2022/05/19 05:59:55;;;;;;;;;;;18.80;99.90;;;;;;5059508;28;40124;-47
2022/05/19 06:02:22;;;;;;;;;;;18.80;99.90;;;;;;5057866;28;38036;-46
2022/05/19 06:04:49;;;;;;;;;;;18.80;99.90;;;;;;5057786;28;37264;-47
2022/05/19 06:07:17;;;;;;;;;;;18.90;99.90;;;;;;5058914;28;39372;-48
2022/05/19 06:09:44;;;;;;;;;;;18.90;99.90;;;;;;5058229;28;38315;-48
2022/05/19 06:12:11;;;;;;;;;;;18.90;99.90;;;;;;5057494;28;37967;-57
2022/05/19 06:14:40;;;;;;;;;;;18.90;99.90;;;;;;5059878;28;35209;-57
2022/05/19 06:17:07;;;;;;;;;;;18.90;99.90;;;;;;5059669;28;37645;-57
2022/05/19 06:19:34;;;;;;;;;;;19.00;99.90;;;;;;5058195;28;37952;-57
2022/05/19 06:22:01;;;;;;;;;;;19.00;99.90;;;;;;5058060;28;37422;-57
2022/05/19 06:24:28;;;;;;;;;;;19.10;99.90;;;;;;5056448;28;37019;-57
2022/05/19 06:26:55;;;;;;;;;;;19.00;99.90;;;;;;5056925;28;38427;-57
2022/05/19 06:29:22;;;;;;;;;;;19.10;99.90;;;;;;5058367;28;38524;-57
2022/05/19 06:31:50;;;;;;;;;;;19.10;99.90;;;;;;5057427;28;35171;-57
2022/05/19 06:34:18;;;;;;;;;;;19.10;99.90;;;;;;5057251;28;34843;-58
2022/05/19 06:36:45;;;;;;;;;;;19.20;99.90;;;;;;5058108;28;39097;-57
2022/05/19 06:39:12;;;;;;;;;;;19.20;99.90;;;;;;5057510;28;38393;-57
2022/05/19 06:44:23;;;;;;;;;;;19.20;99.90;;;;;;5058322;28;36312;-57
2022/05/19 06:46:52;;;;;;;;;;;19.10;99.90;;;;;;5056832;28;39919;-57
2022/05/19 06:49:19;;;;;;;;;;;19.20;99.90;;;;;;5057532;28;38517;-57
2022/05/19 06:51:46;;;;;;;;;;;19.10;99.90;;;;;;5057322;28;37444;-56
2022/05/19 06:54:13;;;;;;;;;;;19.10;99.90;;;;;;5057615;28;36485;-57
2022/05/19 06:56:40;;;;;;;;;;;19.00;99.90;;;;;;5052436;28;38388;-57
2022/05/19 06:59:08;;;;;;;;;;;19.00;99.90;;;;;;5055063;28;38511;-57
2022/05/19 07:01:35;;;;;;;;;;;18.90;99.90;;;;;;5056634;28;38751;-57
2022/05/19 07:04:03;;;;;;;;;;;18.80;99.90;;;;;;5057438;28;36397;-57
2022/05/19 07:06:31;;;;;;;;;;;18.80;99.90;;;;;;5057758;28;37781;-56
2022/05/19 07:08:58;;;;;;;;;;;18.80;99.90;;;;;;5056738;28;37884;-56
2022/05/19 07:11:30;;;;;;;;;;;18.70;99.90;;;;;;5056416;28;36064;-56
2022/05/19 07:13:58;;;;;;;;;;;18.70;99.90;;;;;;5056815;28;37961;-55
2022/05/19 07:16:26;;;;;;;;;;;18.80;99.90;;;;;;5054495;28;36351;-55
2022/05/19 07:20:43;;;;;;;;;;;18.80;99.90;;;;;;5054502;28;40143;-56
2022/05/19 07:21:42;;;;;;;;;;;18.80;99.90;;;;;;5055526;28;37419;-56
2022/05/19 07:24:10;;;;;;;;;;;18.80;99.90;;;;;;5055823;28;36406;-56
2022/05/19 07:26:37;;;;;;;;;;;18.80;99.90;;;;;;5054899;28;37749;-56
2022/05/19 07:29:04;;;;;;;;;;;18.80;99.90;;;;;;5055050;28;38705;-56
2022/05/19 07:31:32;;;;;;;;;;;18.80;99.90;;;;;;5057414;28;36980;-57
2022/05/19 07:33:59;;;;;;;;;;;18.80;99.90;;;;;;5054132;28;35717;-56
2022/05/19 07:36:26;;;;;;;;;;;18.80;99.90;;;;;;5056582;28;37824;-56
2022/05/19 07:38:56;;;;;;;;;;;18.80;99.90;;;;;;5056209;28;37378;-56
2022/05/19 07:41:23;;;;;;;;;;;18.80;99.90;;;;;;5057339;28;37453;-55
2022/05/19 07:43:52;;;;;;;;;;;18.70;99.90;;;;;;5056741;28;36932;-56
2022/05/19 07:46:19;;;;;;;;;;;18.70;99.90;;;;;;5056796;28;39993;-56
2022/05/19 07:48:47;;;;;;;;;;;18.70;99.90;;;;;;5054515;28;38599;-57
2022/05/19 07:51:14;;;;;;;;;;;18.70;99.90;;;;;;5055114;28;37207;-57
2022/05/19 07:53:41;;;;;;;;;;;18.70;99.90;;;;;;5057138;28;36005;-57
2022/05/19 07:56:09;;;;;;;;;;;18.70;99.90;;;;;;5055874;28;38408;-56
2022/05/19 07:58:37;;;;;;;;;;;18.80;99.90;;;;;;5056407;28;38617;-57
2022/05/19 08:01:04;;;;;;;;;;;18.70;99.90;;;;;;5056613;28;36085;-57
2022/05/19 08:03:31;;;;;;;;;;;18.80;99.90;;;;;;5055210;28;36290;-57
2022/05/19 08:05:58;;;;;;;;;;;18.80;99.90;;;;;;5054001;28;39542;-55
2022/05/19 08:08:25;;;;;;;;;;;18.90;99.90;;;;;;5055855;28;37847;-56
2022/05/19 08:10:53;;;;;;;;;;;18.90;99.90;;;;;;5055416;28;35926;-55
2022/05/19 08:16:05;;;;;;;;;;;18.90;99.90;;;;;;5054917;28;38800;-55
2022/05/19 08:18:33;;;;;;;;;;;18.90;99.90;;;;;;5055158;28;38104;-56
2022/05/19 08:21:02;;;;;;;;;;;19.00;99.90;;;;;;5055440;28;36637;-56
2022/05/19 08:23:30;;;;;;;;;;;19.00;99.90;;;;;;5055347;28;35154;-56
2022/05/19 08:25:58;;;;;;;;;;;19.00;99.90;;;;;;5055353;28;40838;-55
2022/05/19 08:28:29;;;;;;;;;;;19.00;99.90;;;;;;5055985;28;38094;-55
2022/05/19 08:30:56;;;;;;;;;;;19.00;99.90;;;;;;5054989;28;37264;-55
2022/05/19 08:33:24;;;;;;;;;;;19.00;99.90;;;;;;5055837;28;36319;-55
2022/05/19 08:35:51;;;;;;;;;;;19.00;99.90;;;;;;5055225;28;37639;-56
2022/05/19 08:38:18;;;;;;;;;;;19.00;99.90;;;;;;5055629;28;39828;-56
2022/05/19 08:40:47;;;;;;;;;;;18.90;99.90;;;;;;5054398;28;37660;-56
2022/05/19 08:43:16;;;;;;;;;;;19.00;99.90;;;;;;5054404;28;35153;-56
2022/05/19 08:45:47;;;;;;;;;;;19.00;99.90;;;;;;5056187;28;37307;-56
2022/05/19 08:48:16;;;;;;;;;;;19.10;99.90;;;;;;5054540;28;36809;-56
2022/05/19 08:50:45;;;;;;;;;;;19.10;99.90;;;;;;5054418;28;37050;-56
2022/05/19 08:53:12;;;;;;;;;;;19.20;99.90;;;;;;5053837;28;37801;-55
2022/05/19 08:55:41;;;;;;;;;;;19.30;99.90;;;;;;5054439;28;36416;-56
2022/05/19 08:58:14;;;;;;;;;;;19.40;99.90;;;;;;5052901;28;38198;-56
2022/05/19 09:00:43;;;;;;;;;;;19.50;99.90;;;;;;5054170;28;38489;-56
2022/05/19 09:03:16;;;;;;;;;;;19.60;99.90;;;;;;5054117;28;37120;-56
2022/05/19 09:05:54;;;;;;;;;;;19.70;99.90;;;;;;5054775;28;37545;-56
2022/05/19 09:08:26;;;;;;;;;;;19.80;99.90;;;;;;5054812;28;38550;-56
2022/05/19 09:10:58;;;;;;;;;;;20.00;99.90;;;;;;5053392;28;38248;-56
2022/05/19 09:13:31;;;;;;;;;;;20.10;99.90;;;;;;5054895;28;36317;-56
2022/05/19 09:16:00;;;;;;;;;;;20.20;99.90;;;;;;5054522;28;38730;-56
2022/05/19 09:18:32;;;;;;;;;;;20.30;99.90;;;;;;5056193;28;37712;-56
2022/05/19 09:21:00;;;;;;;;;;;20.40;99.90;;;;;;5058387;28;37923;-56
2022/05/19 09:23:27;;;;;;;;;;;20.40;99.90;;;;;;5059411;28;37347;-56
2022/05/19 09:25:58;;;;;;;;;;;20.40;99.90;;;;;;5057571;28;39314;-56
2022/05/19 09:28:25;;;;;;;;;;;20.50;99.90;;;;;;5057189;28;38510;-56
2022/05/19 09:30:53;;;;;;;;;;;20.60;99.90;;;;;;5057621;28;37865;-55
2022/05/19 09:33:22;;;;;;;;;;;20.60;99.90;;;;;;5057848;28;36198;-57
2022/05/19 09:35:52;;;;;;;;;;;20.70;99.90;;;;;;5056467;28;37319;-57
2022/05/19 09:38:26;;;;;;;;;;;20.80;99.90;;;;;;5056326;28;38503;-57
2022/05/19 09:40:55;;;;;;;;;;;20.80;99.90;;;;;;5055347;28;38402;-57
2022/05/19 09:43:26;;;;;;;;;;;20.80;99.90;;;;;;5055781;28;35791;-57
2022/05/19 09:46:00;;;;;;;;;;;20.90;99.90;;;;;;5051764;28;38633;-57
2022/05/19 09:48:28;;;;;;;;;;;20.90;99.90;;;;;;5054207;28;38309;-57
2022/05/19 09:51:03;;;;;;;;;;;20.90;99.90;;;;;;5056501;28;37225;-57
2022/05/19 09:53:30;;;;;;;;;;;21.00;99.90;;;;;;5055803;28;35167;-57
2022/05/19 09:55:58;;;;;;;;;;;21.10;99.90;;;;;;5058708;28;38025;-57
2022/05/19 09:58:26;;;;;;;;;;;21.20;99.90;;;;;;5057047;28;39525;-57
2022/05/19 10:00:54;;;;;;;;;;;21.20;99.90;;;;;;5057408;28;37399;-57
2022/05/19 10:03:23;;;;;;;;;;;21.20;99.90;;;;;;5056422;28;37058;-58
2022/05/19 10:05:51;;;;;;;;;;;21.20;99.90;;;;;;5057516;28;39610;-57
2022/05/19 10:08:21;;;;;;;;;;;21.20;99.90;;;;;;5057682;28;40234;-57
2022/05/19 10:10:54;;;;;;;;;;;21.30;99.90;;;;;;5057193;28;38794;-58
2022/05/19 10:13:25;;;;;;;;;;;21.20;99.90;;;;;;5056050;28;36822;-57
2022/05/19 10:15:55;;;;;;;;;;;21.30;99.90;;;;;;5056798;28;37569;-57
2022/05/19 10:18:30;;;;;;;;;;;21.30;99.90;;;;;;5056802;28;40246;-58
2022/05/19 10:21:03;;;;;;;;;;;21.40;99.90;;;;;;5057096;28;37270;-58
2022/05/19 10:23:38;;;;;;;;;;;21.60;99.90;;;;;;5057185;28;37500;-58
2022/05/19 10:26:10;;;;;;;;;;;21.80;99.40;;;;;;5056886;28;38953;-57
2022/05/19 10:31:38;;;;;;;;;;;22.10;99.20;;;;;;5057675;28;38612;-57
2022/05/19 10:34:19;;;;;;;;;;;22.40;98.70;;;;;;5056593;28;34955;-58
2022/05/19 10:36:51;;;;;;;;;;;22.50;97.60;;;;;;5055393;28;38368;-57
2022/05/19 10:39:30;;;;;;;;;;;22.70;97.60;;;;;;5056536;28;37664;-58
2022/05/19 10:42:04;;;;;;;;;;;22.70;97.50;;;;;;5055271;28;37400;-57
2022/05/19 10:47:37;;;;;;;;;;;22.50;97.00;;;;;;5054615;28;38434;-58
2022/05/19 10:50:32;;;;;;;;;;;22.50;97.70;;;;;;5053720;28;39364;-58
2022/05/19 10:53:08;;;;;;;;;;;22.50;97.70;;;;;;5054652;28;38408;-57
2022/05/19 10:55:42;;;;;;;;;;;22.70;98.10;;;;;;5054927;28;36803;-58
2022/05/19 10:58:19;;;;;;;;;;;23.00;98.60;;;;;;5054113;28;38116;-57
2022/05/19 11:01:00;;;;;;;;;;;23.30;97.70;;;;;;5055856;28;38037;-58
2022/05/19 11:03:53;;;;;;;;;;;23.60;97.10;;;;;;5054875;28;37992;-58
2022/05/19 11:06:31;;;;;;;;;;;23.80;96.40;;;;;;5056486;28;36476;-58
2022/05/19 11:09:05;;;;;;;;;;;24.00;96.00;;;;;;5055774;28;37379;-58
2022/05/19 11:11:42;;;;;;;;;;;24.10;96.50;;;;;;5056474;28;38476;-58
2022/05/19 11:14:15;;;;;;;;;;;24.30;95.90;;;;;;5056795;28;37904;-58
2022/05/19 11:16:47;;;;;;;;;;;24.40;95.40;;;;;;5055314;28;36708;-58
2022/05/19 11:19:24;;;;;;;;;;;24.40;95.00;;;;;;5054517;28;37430;-59
2022/05/19 11:22:03;;;;;;;;;;;24.50;92.30;;;;;;5053862;28;39164;-59
2022/05/19 11:26:23;;;;;;;;;;;24.40;94.00;;;;;;5055553;28;38260;-58
2022/05/19 11:27:34;;;;;;;;;;;24.40;93.90;;;;;;5054266;28;36631;-58
2022/05/19 11:30:08;;;;;;;;;;;24.30;94.30;;;;;;5053955;28;38399;-59
2022/05/19 11:32:37;;;;;;;;;;;24.30;94.30;;;;;;5054809;28;38534;-57
2022/05/19 11:35:14;;;;;;;;;;;24.20;93.60;;;;;;5054333;28;38209;-58
2022/05/19 11:37:52;;;;;;;;;;;24.10;93.10;;;;;;5055370;28;36163;-58
2022/05/19 11:40:22;;;;;;;;;;;24.00;92.80;;;;;;5055794;28;37861;-58
2022/05/19 11:43:00;;;;;;;;;;;23.80;93.10;;;;;;5046877;28;39182;-58
2022/05/19 11:45:33;;;;;;;;;;;23.70;93.70;;;;;;5049441;28;38217;-58
2022/05/19 11:56:33;;;;;;;;;;;23.50;93.80;;;;;;5053685;28;38503;-57
2022/05/19 11:59:03;;;;;;;;;;;23.50;94.20;;;;;;5049978;28;35146;-58
2022/05/19 12:01:37;;;;;;;;;;;23.40;94.10;;;;;;5049349;28;37859;-58
2022/05/19 12:04:12;;;;;;;;;;;23.30;93.90;;;;;;5050989;28;39267;-58
2022/05/19 12:06:45;;;;;;;;;;;23.20;94.60;;;;;;5050458;28;37612;-58
2022/05/19 12:09:20;;;;;;;;;;;23.20;94.10;;;;;;5050155;28;35242;-58
2022/05/19 12:11:54;;;;;;;;;;;23.10;94.00;;;;;;5051552;28;37965;-58
2022/05/19 12:14:36;;;;;;;;;;;23.00;94.40;;;;;;5052204;28;36492;-58
2022/05/19 12:17:15;;;;;;;;;;;23.00;94.90;;;;;;5051687;28;38456;-58
2022/05/19 12:19:47;;;;;;;;;;;23.00;94.30;;;;;;5051653;28;39196;-58
2022/05/19 12:22:22;;;;;;;;;;;22.90;94.80;;;;;;5052480;28;37573;-58
2022/05/19 12:24:52;;;;;;;;;;;22.90;95.10;;;;;;5053060;28;38112;-58
2022/05/19 12:27:24;;;;;;;;;;;22.80;95.30;;;;;;5053892;28;38951;-57
2022/05/19 12:31:56;;;;;;;;;;;22.80;95.60;;;;;;5052621;28;34956;-58
2022/05/19 12:33:02;;;;;;;;;;;22.80;96.30;;;;;;5052932;28;37791;-57
2022/05/19 12:35:32;;;;;;;;;;;22.70;96.30;;;;;;5052042;28;39159;-57
2022/05/19 12:38:05;;;;;;;;;;;22.70;96.50;;;;;;5050659;28;36492;-57
2022/05/19 12:40:51;;;;;;;;;;;22.60;96.50;;;;;;5053757;28;36873;-57
2022/05/19 12:43:30;;;;;;;;;;;22.60;97.00;;;;;;5053595;28;37692;-58
2022/05/19 12:46:09;;;;;;;;;;;22.50;97.10;;;;;;5052198;28;38338;-57
2022/05/19 12:48:44;;;;;;;;;;;22.50;97.30;;;;;;5053245;28;39140;-57
2022/05/19 12:51:16;;;;;;;;;;;22.40;98.40;;;;;;5053794;28;36201;-56
2022/05/19 12:53:52;;;;;;;;;;;22.30;99.90;;;;;;5055616;28;38858;-57
2022/05/19 12:56:34;;;;;;;;;;;21.90;99.90;;;;;;5056863;28;36959;-57
2022/05/19 12:59:07;;;;;;;;;;;21.50;99.90;;;;;;5053890;28;37279;-57
2022/05/19 13:01:38;;;;;;;;;;;21.20;99.90;;;;;;5057657;28;35230;-57
2022/05/19 13:04:15;;;;;;;;;;;20.90;99.90;;;;;;5055061;28;40374;-56
2022/05/19 13:06:50;;;;;;;;;;;20.60;99.90;;;;;;5055972;28;39551;-57
2022/05/19 13:09:22;;;;;;;;;;;20.40;99.90;;;;;;5056299;28;39045;-56
2022/05/19 13:11:53;;;;;;;;;;;20.30;99.90;;;;;;5056818;28;36136;-56
2022/05/19 13:14:22;;;;;;;;;;;20.10;99.90;;;;;;5055896;28;37796;-56
2022/05/19 13:16:57;;;;;;;;;;;20.00;99.90;;;;;;5057765;28;38234;-56
2022/05/19 13:19:30;;;;;;;;;;;19.90;99.90;;;;;;5054487;28;36520;-56
2022/05/19 13:21:59;;;;;;;;;;;19.80;99.90;;;;;;5063764;28;37250;-56
2022/05/19 13:24:31;;;;;;;;;;;19.70;99.90;;;;;;5063988;28;38366;-56
2022/05/19 13:32:36;;;;;;;;;;;19.60;99.90;;;;;;5063634;28;38065;-55
2022/05/19 13:35:07;;;;;;;;;;;19.50;99.90;;;;;;5063181;28;38116;-56
2022/05/19 13:37:36;;;;;;;;;;;19.50;99.90;;;;;;5061632;28;38471;-55
2022/05/19 13:40:15;;;;;;;;;;;19.50;99.90;;;;;;5061181;28;38176;-55
2022/05/19 13:42:45;;;;;;;;;;;19.50;99.90;;;;;;5062744;28;36242;-55
2022/05/19 13:45:17;;;;;;;;;;;19.40;99.90;;;;;;5063385;28;38230;-56
2022/05/19 13:47:54;;;;;;;;;;;19.40;99.90;;;;;;5062500;28;37893;-55
2022/05/19 13:50:25;;;;;;;;;;;19.30;99.90;;;;;;5063331;28;38068;-54
2022/05/19 13:52:57;;;;;;;;;;;19.30;99.90;;;;;;5063434;28;36508;-55
2022/05/19 13:55:30;;;;;;;;;;;19.20;99.90;;;;;;5063488;28;37668;-55
2022/05/19 13:58:07;;;;;;;;;;;19.20;99.90;;;;;;5059101;28;37430;-55
2022/05/19 14:00:42;;;;;;;;;;;19.20;99.90;;;;;;5043511;28;36408;-55
2022/05/19 14:03:15;;;;;;;;;;;19.20;99.90;;;;;;5042633;28;35143;-55
2022/05/19 14:05:44;;;;;;;;;;;19.20;99.90;;;;;;5043751;28;37579;-56
2022/05/19 14:08:17;;;;;;;;;;;19.20;99.90;;;;;;5044289;28;39806;-56
2022/05/19 14:10:47;;;;;;;;;;;19.20;99.90;;;;;;5043316;28;38388;-56
2022/05/19 14:13:21;;;;;;;;;;;19.10;99.90;;;;;;5046150;28;37011;-54
2022/05/19 14:16:00;;;;;;;;;;;19.10;99.90;;;;;;5045133;28;37789;-55
2022/05/19 14:18:41;;;;;;;;;;;19.10;99.90;;;;;;5045269;28;38768;-55
2022/05/19 14:21:11;;;;;;;;;;;19.00;99.90;;;;;;5043543;28;38497;-55
2022/05/19 14:23:46;;;;;;;;;;;19.00;99.90;;;;;;5045009;28;36584;-55
2022/05/19 14:26:16;;;;;;;;;;;19.10;99.90;;;;;;5046588;28;35838;-55
2022/05/19 14:28:49;;;;;;;;;;;19.00;99.90;;;;;;5045373;28;38111;-54
2022/05/19 14:31:29;;;;;;;;;;;19.00;99.90;;;;;;5045899;28;36564;-55
2022/05/19 14:34:08;;;;;;;;;;;19.00;99.90;;;;;;5045499;28;38864;-54
2022/05/19 14:36:44;;;;;;;;;;;19.00;99.90;;;;;;5045836;28;38097;-55
2022/05/19 14:39:18;;;;;;;;;;;18.90;99.90;;;;;;5044300;28;38970;-55
2022/05/19 14:44:44;;;;;;;;;;;19.00;99.90;;;;;;5046264;28;37374;-55
2022/05/19 14:47:37;;;;;;;;;;;19.00;99.90;;;;;;5045536;28;37317;-55
2022/05/19 14:50:22;;;;;;;;;;;19.00;99.90;;;;;;5045326;28;37651;-55
2022/05/19 14:53:07;;;;;;;;;;;18.90;99.90;;;;;;5045978;28;38391;-55
2022/05/19 14:55:39;;;;;;;;;;;19.00;99.90;;;;;;5045841;28;35256;-55
2022/05/19 14:58:27;;;;;;;;;;;19.00;99.90;;;;;;5044115;28;37806;-55
2022/05/19 15:01:15;;;;;;;;;;;19.00;99.90;;;;;;5067154;28;38625;-55
2022/05/19 15:03:58;;;;;;;;;;;19.00;99.90;;;;;;5065897;28;37415;-55